sensor_id;sensor_type;location;lat;lon;timestamp;P1;durP1;ratioP1;P2;durP2;ratioP2
13319;SDS011;59599;47.608;12.190;2023-12-20T05:00:10;5.97;;;4.30;;
13319;SDS011;59599;47.608;12.190;2023-12-20T05:02:37;7.97;;;4.40;;
13319;SDS011;59599;47.608;12.190;2023-12-20T05:05:02;8.50;;;4.53;;
13319;SDS011;59599;47.608;12.190;2023-12-20T05:07:28;7.23;;;4.30;;
13319;SDS011;59599;47.608;12.190;2023-12-20T05:09:54;7.60;;;4.67;;
13319;SDS011;59599;47.608;12.190;2023-12-20T05:12:19;7.40;;;4.30;;
13319;SDS011;59599;47.608;12.190;2023-12-20T05:14:46;11.57;;;4.73;;
13319;SDS011;59599;47.608;12.190;2023-12-20T05:17:11;8.40;;;4.83;;
13319;SDS011;59599;47.608;12.190;2023-12-20T05:19:37;8.50;;;4.10;;
13319;SDS011;59599;47.608;12.190;2023-12-20T05:22:03;6.27;;;4.33;;
13319;SDS011;59599;47.608;12.190;2023-12-20T05:24:29;7.73;;;4.50;;
13319;SDS011;59599;47.608;12.190;2023-12-20T05:26:55;7.30;;;4.60;;
13319;SDS011;59599;47.608;12.190;2023-12-20T05:29:21;8.30;;;5.10;;
13319;SDS011;59599;47.608;12.190;2023-12-20T05:31:47;8.17;;;4.43;;
13319;SDS011;59599;47.608;12.190;2023-12-20T05:34:13;8.10;;;4.73;;
13319;SDS011;59599;47.608;12.190;2023-12-20T05:36:39;6.80;;;4.73;;
13319;SDS011;59599;47.608;12.190;2023-12-20T05:39:05;10.63;;;4.53;;
13319;SDS011;59599;47.608;12.190;2023-12-20T05:41:32;9.80;;;5.33;;
13319;SDS011;59599;47.608;12.190;2023-12-20T05:43:58;22.53;;;13.03;;
13319;SDS011;59599;47.608;12.190;2023-12-20T05:46:25;19.83;;;12.93;;
13319;SDS011;59599;47.608;12.190;2023-12-20T05:48:51;11.60;;;5.77;;
13319;SDS011;59599;47.608;12.190;2023-12-20T05:51:17;9.40;;;6.23;;
13319;SDS011;59599;47.608;12.190;2023-12-20T05:53:43;11.60;;;7.23;;
13319;SDS011;59599;47.608;12.190;2023-12-20T05:56:10;11.97;;;8.07;;
13319;SDS011;59599;47.608;12.190;2023-12-20T05:58:36;12.17;;;8.03;;
13319;SDS011;59599;47.608;12.190;2023-12-20T06:01:05;13.23;;;8.70;;
13319;SDS011;59599;47.608;12.190;2023-12-20T06:03:32;12.00;;;7.70;;
13319;SDS011;59599;47.608;12.190;2023-12-20T06:05:58;10.40;;;6.53;;
13319;SDS011;59599;47.608;12.190;2023-12-20T06:08:25;12.17;;;6.80;;
13319;SDS011;59599;47.608;12.190;2023-12-20T06:10:51;14.90;;;6.93;;
13319;SDS011;59599;47.608;12.190;2023-12-20T06:13:17;10.37;;;6.73;;
13319;SDS011;59599;47.608;12.190;2023-12-20T06:15:43;11.10;;;6.90;;
13319;SDS011;59599;47.608;12.190;2023-12-20T06:18:09;11.03;;;6.30;;
13319;SDS011;59599;47.608;12.190;2023-12-20T06:20:35;7.87;;;5.50;;
13319;SDS011;59599;47.608;12.190;2023-12-20T06:23:01;11.87;;;6.30;;
13319;SDS011;59599;47.608;12.190;2023-12-20T06:25:27;8.40;;;5.73;;
13319;SDS011;59599;47.608;12.190;2023-12-20T06:27:53;9.33;;;5.60;;
13319;SDS011;59599;47.608;12.190;2023-12-20T06:30:19;9.00;;;5.40;;
13319;SDS011;59599;47.608;12.190;2023-12-20T06:32:45;8.90;;;5.63;;
13319;SDS011;59599;47.608;12.190;2023-12-20T06:35:12;8.87;;;5.83;;
13319;SDS011;59599;47.608;12.190;2023-12-20T06:37:37;11.33;;;6.27;;
13319;SDS011;59599;47.608;12.190;2023-12-20T06:40:07;10.67;;;6.60;;
13319;SDS011;59599;47.608;12.190;2023-12-20T06:42:33;11.60;;;6.27;;
13319;SDS011;59599;47.608;12.190;2023-12-20T06:44:59;9.60;;;6.80;;
13319;SDS011;59599;47.608;12.190;2023-12-20T06:47:25;10.33;;;5.73;;
13319;SDS011;59599;47.608;12.190;2023-12-20T06:49:51;8.20;;;5.87;;
13319;SDS011;59599;47.608;12.190;2023-12-20T06:52:20;11.57;;;5.70;;
13319;SDS011;59599;47.608;12.190;2023-12-20T06:54:47;10.23;;;5.87;;
13319;SDS011;59599;47.608;12.190;2023-12-20T06:57:15;8.67;;;5.60;;
13319;SDS011;59599;47.608;12.190;2023-12-20T06:59:42;10.67;;;5.97;;
13319;SDS011;59599;47.608;12.190;2023-12-20T07:02:09;8.10;;;5.60;;
13319;SDS011;59599;47.608;12.190;2023-12-20T07:04:38;8.67;;;6.20;;
13319;SDS011;59599;47.608;12.190;2023-12-20T07:07:04;8.47;;;6.03;;
13319;SDS011;59599;47.608;12.190;2023-12-20T07:09:30;6.93;;;5.50;;
13319;SDS011;59599;47.608;12.190;2023-12-20T07:11:56;12.27;;;8.03;;
13319;SDS011;59599;47.608;12.190;2023-12-20T07:14:22;14.17;;;7.67;;
13319;SDS011;59599;47.608;12.190;2023-12-20T07:16:48;12.47;;;7.60;;
13319;SDS011;59599;47.608;12.190;2023-12-20T07:19:14;9.70;;;7.33;;
13319;SDS011;59599;47.608;12.190;2023-12-20T07:21:40;15.43;;;8.20;;
13319;SDS011;59599;47.608;12.190;2023-12-20T07:24:06;12.13;;;8.17;;
13319;SDS011;59599;47.608;12.190;2023-12-20T07:26:32;13.37;;;8.53;;
13319;SDS011;59599;47.608;12.190;2023-12-20T07:28:59;12.33;;;7.77;;
13319;SDS011;59599;47.608;12.190;2023-12-20T07:31:25;16.80;;;9.53;;
13319;SDS011;59599;47.608;12.190;2023-12-20T07:33:50;10.73;;;7.17;;
13319;SDS011;59599;47.608;12.190;2023-12-20T07:36:16;9.27;;;5.87;;
13319;SDS011;59599;47.608;12.190;2023-12-20T07:38:42;8.50;;;5.50;;
13319;SDS011;59599;47.608;12.190;2023-12-20T07:41:12;10.83;;;6.50;;
13319;SDS011;59599;47.608;12.190;2023-12-20T07:43:38;9.33;;;5.63;;
13319;SDS011;59599;47.608;12.190;2023-12-20T07:46:05;9.47;;;5.60;;
13319;SDS011;59599;47.608;12.190;2023-12-20T07:48:31;7.83;;;5.10;;
13319;SDS011;59599;47.608;12.190;2023-12-20T07:50:57;9.77;;;5.03;;
13319;SDS011;59599;47.608;12.190;2023-12-20T07:53:23;8.07;;;4.80;;
13319;SDS011;59599;47.608;12.190;2023-12-20T07:55:49;6.90;;;5.20;;
13319;SDS011;59599;47.608;12.190;2023-12-20T07:58:17;9.10;;;4.97;;
13319;SDS011;59599;47.608;12.190;2023-12-20T08:00:43;10.33;;;5.00;;
13319;SDS011;59599;47.608;12.190;2023-12-20T08:03:09;7.93;;;5.37;;
13319;SDS011;59599;47.608;12.190;2023-12-20T08:05:35;7.13;;;5.50;;
13319;SDS011;59599;47.608;12.190;2023-12-20T08:08:01;8.23;;;5.67;;
13319;SDS011;59599;47.608;12.190;2023-12-20T08:10:27;9.97;;;5.30;;
13319;SDS011;59599;47.608;12.190;2023-12-20T08:12:55;9.73;;;6.03;;
13319;SDS011;59599;47.608;12.190;2023-12-20T08:15:20;8.87;;;6.30;;
13319;SDS011;59599;47.608;12.190;2023-12-20T08:17:46;9.37;;;6.00;;
13319;SDS011;59599;47.608;12.190;2023-12-20T08:20:12;9.30;;;5.97;;
13319;SDS011;59599;47.608;12.190;2023-12-20T08:22:38;12.90;;;6.47;;
13319;SDS011;59599;47.608;12.190;2023-12-20T08:25:04;12.20;;;6.10;;
13319;SDS011;59599;47.608;12.190;2023-12-20T08:27:30;11.10;;;7.83;;
13319;SDS011;59599;47.608;12.190;2023-12-20T08:29:56;11.27;;;8.13;;
13319;SDS011;59599;47.608;12.190;2023-12-20T08:32:25;15.63;;;8.53;;
13319;SDS011;59599;47.608;12.190;2023-12-20T08:34:51;13.43;;;6.70;;
13319;SDS011;59599;47.608;12.190;2023-12-20T08:37:17;8.63;;;6.00;;
13319;SDS011;59599;47.608;12.190;2023-12-20T08:39:43;10.97;;;7.40;;
13319;SDS011;59599;47.608;12.190;2023-12-20T08:42:09;18.17;;;11.93;;
13319;SDS011;59599;47.608;12.190;2023-12-20T08:44:35;12.60;;;6.90;;
13319;SDS011;59599;47.608;12.190;2023-12-20T08:47:01;12.90;;;7.80;;
13319;SDS011;59599;47.608;12.190;2023-12-20T08:49:27;10.90;;;7.80;;
13319;SDS011;59599;47.608;12.190;2023-12-20T08:51:53;12.37;;;7.60;;
13319;SDS011;59599;47.608;12.190;2023-12-20T08:54:19;15.73;;;8.27;;
13319;SDS011;59599;47.608;12.190;2023-12-20T08:56:45;18.30;;;8.80;;
13319;SDS011;59599;47.608;12.190;2023-12-20T08:59:11;12.87;;;7.50;;
13319;SDS011;59599;47.608;12.190;2023-12-20T09:01:37;10.37;;;7.10;;
13319;SDS011;59599;47.608;12.190;2023-12-20T09:04:03;14.23;;;7.37;;
13319;SDS011;59599;47.608;12.190;2023-12-20T09:06:29;10.17;;;6.50;;
13319;SDS011;59599;47.608;12.190;2023-12-20T09:08:55;11.50;;;7.13;;
13319;SDS011;59599;47.608;12.190;2023-12-20T09:11:21;11.13;;;6.40;;
13319;SDS011;59599;47.608;12.190;2023-12-20T09:13:46;9.93;;;6.20;;
13319;SDS011;59599;47.608;12.190;2023-12-20T09:16:12;11.00;;;6.37;;
13319;SDS011;59599;47.608;12.190;2023-12-20T09:18:40;15.83;;;7.57;;
13319;SDS011;59599;47.608;12.190;2023-12-20T09:21:06;10.37;;;6.27;;
13319;SDS011;59599;47.608;12.190;2023-12-20T09:23:32;12.17;;;7.23;;
13319;SDS011;59599;47.608;12.190;2023-12-20T09:25:58;13.23;;;8.27;;
13319;SDS011;59599;47.608;12.190;2023-12-20T09:28:24;14.40;;;9.13;;
13319;SDS011;59599;47.608;12.190;2023-12-20T09:30:50;13.37;;;9.50;;
13319;SDS011;59599;47.608;12.190;2023-12-20T09:33:16;13.93;;;8.40;;
13319;SDS011;59599;47.608;12.190;2023-12-20T09:35:42;11.43;;;7.33;;
13319;SDS011;59599;47.608;12.190;2023-12-20T09:38:09;14.37;;;7.83;;
13319;SDS011;59599;47.608;12.190;2023-12-20T09:40:35;12.00;;;7.47;;
13319;SDS011;59599;47.608;12.190;2023-12-20T09:43:10;11.60;;;7.83;;
13319;SDS011;59599;47.608;12.190;2023-12-20T09:45:37;12.07;;;7.50;;
13319;SDS011;59599;47.608;12.190;2023-12-20T09:48:05;10.63;;;7.60;;
13319;SDS011;59599;47.608;12.190;2023-12-20T09:50:32;12.10;;;6.97;;
13319;SDS011;59599;47.608;12.190;2023-12-20T09:52:58;11.53;;;6.73;;
13319;SDS011;59599;47.608;12.190;2023-12-20T09:55:24;12.03;;;6.73;;
13319;SDS011;59599;47.608;12.190;2023-12-20T09:57:50;12.27;;;7.97;;
13319;SDS011;59599;47.608;12.190;2023-12-20T10:00:17;11.63;;;8.03;;
13319;SDS011;59599;47.608;12.190;2023-12-20T10:02:45;13.40;;;7.57;;
13319;SDS011;59599;47.608;12.190;2023-12-20T10:05:15;10.33;;;7.67;;
13319;SDS011;59599;47.608;12.190;2023-12-20T10:07:44;12.43;;;7.03;;
13319;SDS011;59599;47.608;12.190;2023-12-20T10:10:10;14.80;;;7.23;;
13319;SDS011;59599;47.608;12.190;2023-12-20T10:12:37;11.27;;;6.57;;
13319;SDS011;59599;47.608;12.190;2023-12-20T10:15:03;13.27;;;7.50;;
13319;SDS011;59599;47.608;12.190;2023-12-20T10:17:30;10.80;;;6.77;;
13319;SDS011;59599;47.608;12.190;2023-12-20T10:19:56;9.47;;;6.50;;
13319;SDS011;59599;47.608;12.190;2023-12-20T10:22:21;10.57;;;7.13;;
13319;SDS011;59599;47.608;12.190;2023-12-20T10:24:47;10.17;;;6.77;;
13319;SDS011;59599;47.608;12.190;2023-12-20T10:27:13;13.13;;;7.40;;
13319;SDS011;59599;47.608;12.190;2023-12-20T10:29:40;11.47;;;7.00;;
13319;SDS011;59599;47.608;12.190;2023-12-20T10:32:39;11.23;;;7.13;;
13319;SDS011;59599;47.608;12.190;2023-12-20T10:34:58;11.50;;;7.30;;
13319;SDS011;59599;47.608;12.190;2023-12-20T10:37:24;12.10;;;7.07;;
13319;SDS011;59599;47.608;12.190;2023-12-20T10:39:51;13.43;;;7.13;;
13319;SDS011;59599;47.608;12.190;2023-12-20T10:42:21;12.33;;;7.33;;
13319;SDS011;59599;47.608;12.190;2023-12-20T10:44:47;10.73;;;7.03;;
13319;SDS011;59599;47.608;12.190;2023-12-20T10:47:14;12.10;;;7.23;;
13319;SDS011;59599;47.608;12.190;2023-12-20T10:49:40;12.70;;;7.93;;
13319;SDS011;59599;47.608;12.190;2023-12-20T10:52:07;12.13;;;7.40;;
13319;SDS011;59599;47.608;12.190;2023-12-20T10:54:33;11.27;;;7.10;;
13319;SDS011;59599;47.608;12.190;2023-12-20T10:57:00;10.90;;;7.23;;
13319;SDS011;59599;47.608;12.190;2023-12-20T10:59:28;17.70;;;9.63;;
13319;SDS011;59599;47.608;12.190;2023-12-20T11:01:56;11.80;;;7.83;;
13319;SDS011;59599;47.608;12.190;2023-12-20T11:04:24;13.40;;;7.63;;
13319;SDS011;59599;47.608;12.190;2023-12-20T11:06:52;14.27;;;7.40;;
13319;SDS011;59599;47.608;12.190;2023-12-20T11:14:20;11.27;;;7.63;;
13319;SDS011;59599;47.608;12.190;2023-12-20T11:16:48;13.30;;;7.93;;
13319;SDS011;59599;47.608;12.190;2023-12-20T11:19:13;16.33;;;8.90;;
13319;SDS011;59599;47.608;12.190;2023-12-20T11:21:39;13.30;;;8.60;;
13319;SDS011;59599;47.608;12.190;2023-12-20T11:24:06;14.00;;;8.63;;
13319;SDS011;59599;47.608;12.190;2023-12-20T11:26:31;11.10;;;7.73;;
13319;SDS011;59599;47.608;12.190;2023-12-20T11:31:54;12.93;;;9.13;;
13319;SDS011;59599;47.608;12.190;2023-12-20T11:34:19;15.60;;;9.07;;
13319;SDS011;59599;47.608;12.190;2023-12-20T11:36:45;14.57;;;9.27;;
13319;SDS011;59599;47.608;12.190;2023-12-20T11:39:11;16.47;;;9.10;;
13319;SDS011;59599;47.608;12.190;2023-12-20T11:41:38;15.47;;;9.63;;
13319;SDS011;59599;47.608;12.190;2023-12-20T11:44:04;17.10;;;9.43;;
13319;SDS011;59599;47.608;12.190;2023-12-20T11:46:29;12.27;;;7.77;;
13319;SDS011;59599;47.608;12.190;2023-12-20T11:48:56;12.80;;;7.43;;
13319;SDS011;59599;47.608;12.190;2023-12-20T11:51:22;10.70;;;6.53;;
13319;SDS011;59599;47.608;12.190;2023-12-20T11:53:51;11.53;;;7.10;;
13319;SDS011;59599;47.608;12.190;2023-12-20T11:56:18;9.57;;;6.40;;
13319;SDS011;59599;47.608;12.190;2023-12-20T11:58:43;10.40;;;7.03;;
13319;SDS011;59599;47.608;12.190;2023-12-20T12:01:10;12.87;;;7.17;;
13319;SDS011;59599;47.608;12.190;2023-12-20T12:03:35;12.77;;;7.03;;
13319;SDS011;59599;47.608;12.190;2023-12-20T12:06:02;10.43;;;7.13;;
13319;SDS011;59599;47.608;12.190;2023-12-20T12:08:29;9.13;;;6.43;;
13319;SDS011;59599;47.608;12.190;2023-12-20T12:10:55;9.70;;;6.67;;
13319;SDS011;59599;47.608;12.190;2023-12-20T12:13:21;10.33;;;6.83;;
13319;SDS011;59599;47.608;12.190;2023-12-20T12:15:47;9.83;;;6.80;;
13319;SDS011;59599;47.608;12.190;2023-12-20T12:18:15;11.33;;;7.17;;
13319;SDS011;59599;47.608;12.190;2023-12-20T12:20:41;11.23;;;6.50;;
13319;SDS011;59599;47.608;12.190;2023-12-20T12:23:07;9.87;;;6.43;;
13319;SDS011;59599;47.608;12.190;2023-12-20T12:25:36;12.53;;;8.40;;
13319;SDS011;59599;47.608;12.190;2023-12-20T12:28:02;11.30;;;5.90;;
13319;SDS011;59599;47.608;12.190;2023-12-20T12:30:28;9.17;;;6.00;;
13319;SDS011;59599;47.608;12.190;2023-12-20T12:32:55;8.87;;;5.83;;
13319;SDS011;59599;47.608;12.190;2023-12-20T12:35:21;12.03;;;6.20;;
13319;SDS011;59599;47.608;12.190;2023-12-20T12:37:47;10.07;;;6.70;;
13319;SDS011;59599;47.608;12.190;2023-12-20T12:40:13;9.23;;;6.40;;
13319;SDS011;59599;47.608;12.190;2023-12-20T12:42:40;14.60;;;6.33;;
13319;SDS011;59599;47.608;12.190;2023-12-20T12:45:06;11.20;;;7.20;;
13319;SDS011;59599;47.608;12.190;2023-12-20T12:47:32;11.13;;;7.60;;
13319;SDS011;59599;47.608;12.190;2023-12-20T12:49:59;11.70;;;7.57;;
13319;SDS011;59599;47.608;12.190;2023-12-20T12:52:25;13.97;;;9.00;;
13319;SDS011;59599;47.608;12.190;2023-12-20T12:54:51;14.53;;;9.07;;
13319;SDS011;59599;47.608;12.190;2023-12-20T12:57:17;13.70;;;8.30;;
13319;SDS011;59599;47.608;12.190;2023-12-20T12:59:44;9.47;;;7.37;;
13319;SDS011;59599;47.608;12.190;2023-12-20T13:02:13;11.93;;;6.97;;
13319;SDS011;59599;47.608;12.190;2023-12-20T13:04:40;10.50;;;7.60;;
13319;SDS011;59599;47.608;12.190;2023-12-20T13:07:06;6.43;;;5.03;;
13319;SDS011;59599;47.608;12.190;2023-12-20T13:09:32;4.03;;;3.17;;
13319;SDS011;59599;47.608;12.190;2023-12-20T13:11:58;4.63;;;4.00;;
13319;SDS011;59599;47.608;12.190;2023-12-20T13:14:24;7.27;;;5.27;;
13319;SDS011;59599;47.608;12.190;2023-12-20T13:16:50;6.63;;;4.33;;
13319;SDS011;59599;47.608;12.190;2023-12-20T13:19:16;6.07;;;4.07;;
13319;SDS011;59599;47.608;12.190;2023-12-20T13:21:42;3.37;;;2.50;;
13319;SDS011;59599;47.608;12.190;2023-12-20T13:24:07;2.57;;;1.90;;
13319;SDS011;59599;47.608;12.190;2023-12-20T13:26:33;3.27;;;2.07;;
13319;SDS011;59599;47.608;12.190;2023-12-20T13:28:59;4.20;;;2.77;;
13319;SDS011;59599;47.608;12.190;2023-12-20T13:31:25;5.17;;;3.37;;
13319;SDS011;59599;47.608;12.190;2023-12-20T13:33:51;10.63;;;6.50;;
13319;SDS011;59599;47.608;12.190;2023-12-20T13:36:17;6.87;;;4.60;;
13319;SDS011;59599;47.608;12.190;2023-12-20T13:38:44;3.60;;;2.60;;
13319;SDS011;59599;47.608;12.190;2023-12-20T13:41:09;4.47;;;3.07;;
13319;SDS011;59599;47.608;12.190;2023-12-20T13:43:35;3.27;;;2.40;;
13319;SDS011;59599;47.608;12.190;2023-12-20T13:46:01;2.20;;;1.90;;
13319;SDS011;59599;47.608;12.190;2023-12-20T13:48:27;1.53;;;1.40;;
13319;SDS011;59599;47.608;12.190;2023-12-20T13:50:53;3.87;;;1.90;;
13319;SDS011;59599;47.608;12.190;2023-12-20T13:53:19;2.17;;;1.87;;
13319;SDS011;59599;47.608;12.190;2023-12-20T13:55:45;2.20;;;1.80;;
13319;SDS011;59599;47.608;12.190;2023-12-20T13:58:11;3.10;;;1.80;;
13319;SDS011;59599;47.608;12.190;2023-12-20T14:00:37;2.27;;;1.40;;
13319;SDS011;59599;47.608;12.190;2023-12-20T14:03:04;2.20;;;1.60;;
13319;SDS011;59599;47.608;12.190;2023-12-20T14:05:30;2.67;;;2.10;;
13319;SDS011;59599;47.608;12.190;2023-12-20T14:07:56;4.57;;;3.10;;
13319;SDS011;59599;47.608;12.190;2023-12-20T14:10:25;5.37;;;3.63;;
13319;SDS011;59599;47.608;12.190;2023-12-20T14:12:51;8.13;;;5.67;;
13319;SDS011;59599;47.608;12.190;2023-12-20T14:15:17;5.73;;;4.10;;
13319;SDS011;59599;47.608;12.190;2023-12-20T14:17:43;4.43;;;3.20;;
13319;SDS011;59599;47.608;12.190;2023-12-20T14:20:09;5.77;;;3.50;;
13319;SDS011;59599;47.608;12.190;2023-12-20T14:22:38;3.87;;;3.13;;
13319;SDS011;59599;47.608;12.190;2023-12-20T14:25:04;6.73;;;4.17;;
13319;SDS011;59599;47.608;12.190;2023-12-20T14:27:31;9.00;;;5.73;;
13319;SDS011;59599;47.608;12.190;2023-12-20T14:29:57;12.57;;;7.20;;
13319;SDS011;59599;47.608;12.190;2023-12-20T14:32:23;5.63;;;3.83;;
13319;SDS011;59599;47.608;12.190;2023-12-20T14:34:51;3.07;;;2.40;;
13319;SDS011;59599;47.608;12.190;2023-12-20T14:37:17;2.70;;;1.63;;
13319;SDS011;59599;47.608;12.190;2023-12-20T14:39:42;1.73;;;1.50;;
13319;SDS011;59599;47.608;12.190;2023-12-20T14:42:08;1.60;;;1.30;;
13319;SDS011;59599;47.608;12.190;2023-12-20T14:44:42;2.10;;;1.63;;
13319;SDS011;59599;47.608;12.190;2023-12-20T14:47:08;1.53;;;1.33;;
13319;SDS011;59599;47.608;12.190;2023-12-20T14:49:34;1.93;;;1.50;;
13319;SDS011;59599;47.608;12.190;2023-12-20T14:51:59;2.07;;;1.40;;
13319;SDS011;59599;47.608;12.190;2023-12-20T14:54:25;3.70;;;2.30;;
13319;SDS011;59599;47.608;12.190;2023-12-20T14:56:51;2.50;;;2.10;;
13319;SDS011;59599;47.608;12.190;2023-12-20T14:59:17;2.00;;;1.57;;
13319;SDS011;59599;47.608;12.190;2023-12-20T15:01:43;2.70;;;2.00;;
13319;SDS011;59599;47.608;12.190;2023-12-20T15:04:09;2.47;;;2.00;;
13319;SDS011;59599;47.608;12.190;2023-12-20T15:06:35;1.63;;;1.50;;
13319;SDS011;59599;47.608;12.190;2023-12-20T15:09:01;3.07;;;1.90;;
13319;SDS011;59599;47.608;12.190;2023-12-20T15:11:30;5.20;;;2.60;;
13319;SDS011;59599;47.608;12.190;2023-12-20T15:13:57;2.43;;;1.90;;
13319;SDS011;59599;47.608;12.190;2023-12-20T15:16:25;2.47;;;1.50;;
13319;SDS011;59599;47.608;12.190;2023-12-20T15:18:51;1.20;;;1.00;;
13319;SDS011;59599;47.608;12.190;2023-12-20T15:21:18;1.20;;;1.10;;
13319;SDS011;59599;47.608;12.190;2023-12-20T15:23:44;3.80;;;1.30;;
13319;SDS011;59599;47.608;12.190;2023-12-20T15:26:21;2.80;;;1.27;;
13319;SDS011;59599;47.608;12.190;2023-12-20T15:28:47;1.30;;;1.17;;
13319;SDS011;59599;47.608;12.190;2023-12-20T15:31:12;2.50;;;1.77;;
13319;SDS011;59599;47.608;12.190;2023-12-20T15:33:39;2.73;;;1.83;;
13319;SDS011;59599;47.608;12.190;2023-12-20T15:36:05;3.53;;;2.43;;
13319;SDS011;59599;47.608;12.190;2023-12-20T15:38:31;6.40;;;3.83;;
13319;SDS011;59599;47.608;12.190;2023-12-20T15:40:59;2.70;;;1.70;;
13319;SDS011;59599;47.608;12.190;2023-12-20T15:43:26;4.40;;;1.10;;
13319;SDS011;59599;47.608;12.190;2023-12-20T15:45:52;2.40;;;1.70;;
13319;SDS011;59599;47.608;12.190;2023-12-20T15:48:18;3.80;;;1.73;;
13319;SDS011;59599;47.608;12.190;2023-12-20T15:50:45;5.10;;;2.63;;
13319;SDS011;59599;47.608;12.190;2023-12-20T15:53:10;3.60;;;2.53;;
13319;SDS011;59599;47.608;12.190;2023-12-20T15:55:37;3.43;;;2.10;;
13319;SDS011;59599;47.608;12.190;2023-12-20T15:58:03;2.57;;;1.90;;
13319;SDS011;59599;47.608;12.190;2023-12-20T16:00:28;1.10;;;1.07;;
13319;SDS011;59599;47.608;12.190;2023-12-20T16:02:55;3.80;;;2.20;;
13319;SDS011;59599;47.608;12.190;2023-12-20T16:05:21;3.20;;;2.53;;
13319;SDS011;59599;47.608;12.190;2023-12-20T16:07:47;5.40;;;3.40;;
13319;SDS011;59599;47.608;12.190;2023-12-20T16:10:13;6.13;;;4.70;;
13319;SDS011;59599;47.608;12.190;2023-12-20T16:12:39;8.93;;;5.37;;
13319;SDS011;59599;47.608;12.190;2023-12-20T16:15:05;8.33;;;5.23;;
13319;SDS011;59599;47.608;12.190;2023-12-20T16:17:30;9.50;;;4.37;;
13319;SDS011;59599;47.608;12.190;2023-12-20T16:19:56;7.03;;;4.43;;
13319;SDS011;59599;47.608;12.190;2023-12-20T16:22:22;6.67;;;3.80;;
13319;SDS011;59599;47.608;12.190;2023-12-20T16:24:48;8.13;;;3.43;;
13319;SDS011;59599;47.608;12.190;2023-12-20T16:27:14;5.07;;;2.53;;
13319;SDS011;59599;47.608;12.190;2023-12-20T16:29:39;2.70;;;2.00;;
13319;SDS011;59599;47.608;12.190;2023-12-20T16:32:05;2.70;;;2.00;;
13319;SDS011;59599;47.608;12.190;2023-12-20T16:34:31;2.50;;;2.10;;
13319;SDS011;59599;47.608;12.190;2023-12-20T16:36:57;2.40;;;2.07;;
13319;SDS011;59599;47.608;12.190;2023-12-20T16:39:23;2.30;;;2.00;;
13319;SDS011;59599;47.608;12.190;2023-12-20T16:41:49;3.07;;;2.77;;
13319;SDS011;59599;47.608;12.190;2023-12-20T16:44:15;3.37;;;2.93;;
13319;SDS011;59599;47.608;12.190;2023-12-20T16:46:41;5.60;;;2.70;;
13319;SDS011;59599;47.608;12.190;2023-12-20T16:49:09;3.03;;;2.00;;
13319;SDS011;59599;47.608;12.190;2023-12-20T16:51:35;2.10;;;1.43;;
13319;SDS011;59599;47.608;12.190;2023-12-20T16:54:01;3.23;;;1.80;;
13319;SDS011;59599;47.608;12.190;2023-12-20T16:56:27;3.73;;;1.73;;
13319;SDS011;59599;47.608;12.190;2023-12-20T16:58:53;2.27;;;1.60;;
13319;SDS011;59599;47.608;12.190;2023-12-20T17:01:19;2.50;;;2.07;;
13319;SDS011;59599;47.608;12.190;2023-12-20T17:03:46;6.17;;;1.90;;
13319;SDS011;59599;47.608;12.190;2023-12-20T17:06:12;3.63;;;2.03;;
13319;SDS011;59599;47.608;12.190;2023-12-20T17:08:37;4.13;;;2.10;;
13319;SDS011;59599;47.608;12.190;2023-12-20T17:11:03;2.00;;;1.80;;
13319;SDS011;59599;47.608;12.190;2023-12-20T17:13:29;2.93;;;2.40;;
13319;SDS011;59599;47.608;12.190;2023-12-20T17:15:58;2.70;;;1.60;;
13319;SDS011;59599;47.608;12.190;2023-12-20T17:18:24;1.60;;;1.50;;
13319;SDS011;59599;47.608;12.190;2023-12-20T17:20:50;2.93;;;1.93;;
13319;SDS011;59599;47.608;12.190;2023-12-20T17:23:16;3.00;;;1.90;;
13319;SDS011;59599;47.608;12.190;2023-12-20T17:25:42;3.80;;;1.90;;
13319;SDS011;59599;47.608;12.190;2023-12-20T17:28:08;1.67;;;1.50;;
13319;SDS011;59599;47.608;12.190;2023-12-20T17:30:33;1.87;;;1.40;;
13319;SDS011;59599;47.608;12.190;2023-12-20T17:33:00;1.10;;;1.00;;
13319;SDS011;59599;47.608;12.190;2023-12-20T17:35:26;1.40;;;1.30;;
13319;SDS011;59599;47.608;12.190;2023-12-20T17:37:52;2.00;;;1.70;;
13319;SDS011;59599;47.608;12.190;2023-12-20T17:40:18;3.83;;;2.33;;
13319;SDS011;59599;47.608;12.190;2023-12-20T17:42:44;5.87;;;3.20;;
13319;SDS011;59599;47.608;12.190;2023-12-20T17:45:10;7.10;;;3.35;;
13319;SDS011;59599;47.608;12.190;2023-12-20T17:47:36;5.23;;;2.27;;
13319;SDS011;59599;47.608;12.190;2023-12-20T17:50:02;2.00;;;1.67;;
13319;SDS011;59599;47.608;12.190;2023-12-20T17:52:29;2.50;;;1.30;;
13319;SDS011;59599;47.608;12.190;2023-12-20T17:54:54;1.67;;;1.50;;
13319;SDS011;59599;47.608;12.190;2023-12-20T17:57:20;2.50;;;1.60;;
13319;SDS011;59599;47.608;12.190;2023-12-20T17:59:48;3.37;;;1.73;;
13319;SDS011;59599;47.608;12.190;2023-12-20T18:02:14;5.43;;;3.10;;
13319;SDS011;59599;47.608;12.190;2023-12-20T18:04:40;2.33;;;2.07;;
13319;SDS011;59599;47.608;12.190;2023-12-20T18:07:06;2.60;;;1.90;;
13319;SDS011;59599;47.608;12.190;2023-12-20T18:09:32;3.47;;;1.93;;
13319;SDS011;59599;47.608;12.190;2023-12-20T18:11:58;2.27;;;1.83;;
13319;SDS011;59599;47.608;12.190;2023-12-20T18:14:24;2.80;;;1.77;;
13319;SDS011;59599;47.608;12.190;2023-12-20T18:16:50;2.60;;;1.77;;
13319;SDS011;59599;47.608;12.190;2023-12-20T18:19:16;4.30;;;2.33;;
13319;SDS011;59599;47.608;12.190;2023-12-20T18:21:42;1.70;;;1.60;;
13319;SDS011;59599;47.608;12.190;2023-12-20T18:24:08;2.77;;;1.90;;
13319;SDS011;59599;47.608;12.190;2023-12-20T18:26:34;3.73;;;2.07;;
13319;SDS011;59599;47.608;12.190;2023-12-20T18:29:03;2.53;;;2.30;;
13319;SDS011;59599;47.608;12.190;2023-12-20T18:31:32;2.87;;;2.20;;
13319;SDS011;59599;47.608;12.190;2023-12-20T18:33:57;3.87;;;2.70;;
13319;SDS011;59599;47.608;12.190;2023-12-20T18:36:23;4.87;;;2.80;;
13319;SDS011;59599;47.608;12.190;2023-12-20T18:38:49;9.20;;;5.00;;
13319;SDS011;59599;47.608;12.190;2023-12-20T18:41:15;9.90;;;5.53;;
13319;SDS011;59599;47.608;12.190;2023-12-20T18:43:41;11.23;;;5.40;;
13319;SDS011;59599;47.608;12.190;2023-12-20T18:46:07;8.30;;;5.40;;
13319;SDS011;59599;47.608;12.190;2023-12-20T18:48:33;8.83;;;5.27;;
13319;SDS011;59599;47.608;12.190;2023-12-20T18:50:59;8.37;;;4.77;;
13319;SDS011;59599;47.608;12.190;2023-12-20T18:53:25;7.33;;;5.33;;
13319;SDS011;59599;47.608;12.190;2023-12-20T18:55:52;8.77;;;5.90;;
13319;SDS011;59599;47.608;12.190;2023-12-20T18:58:18;7.63;;;5.23;;
13319;SDS011;59599;47.608;12.190;2023-12-20T19:00:44;9.70;;;6.50;;
13319;SDS011;59599;47.608;12.190;2023-12-20T19:03:10;6.40;;;5.20;;
13319;SDS011;59599;47.608;12.190;2023-12-20T19:05:36;6.30;;;4.87;;
13319;SDS011;59599;47.608;12.190;2023-12-20T19:08:02;6.47;;;4.57;;
13319;SDS011;59599;47.608;12.190;2023-12-20T19:10:28;11.67;;;7.30;;
13319;SDS011;59599;47.608;12.190;2023-12-20T19:12:54;16.27;;;8.37;;
13319;SDS011;59599;47.608;12.190;2023-12-20T19:15:20;12.67;;;6.53;;
13319;SDS011;59599;47.608;12.190;2023-12-20T19:17:46;11.03;;;6.17;;
13319;SDS011;59599;47.608;12.190;2023-12-20T19:20:12;11.63;;;6.20;;
13319;SDS011;59599;47.608;12.190;2023-12-20T19:22:38;15.03;;;7.77;;
13319;SDS011;59599;47.608;12.190;2023-12-20T19:25:04;6.30;;;4.10;;
13319;SDS011;59599;47.608;12.190;2023-12-20T19:27:34;5.27;;;3.57;;
13319;SDS011;59599;47.608;12.190;2023-12-20T19:30:00;6.27;;;4.17;;